Time;durP1;ratioP1;P1;durP2;ratioP2;P2;SDS_P1;SDS_P2;PMS_P1;PMS_P2;Temp;Humidity;BMP_temperature;BMP_pressure;BME280_temperature;BME280_humidity;BME280_pressure;Samples;Min_cycle;Max_cycle;Signal;HPM_P1;HPM_P2
2023/05/10 00:01:13;;;;;;;3.72;2.33;;;;;;;;;;12990232;19;20027;-65
2023/05/10 00:05:31;;;;;;;5.68;2.50;;;;;;;;;;12991920;19;20022;-66
2023/05/10 00:09:49;;;;;;;4.32;1.88;;;;;;;;;;12989996;19;20014;-67
2023/05/10 00:14:07;;;;;;;3.42;1.83;;;;;;;;;;12990196;19;20801;-65
2023/05/10 00:18:24;;;;;;;4.53;2.50;;;;;;;;;;12989625;19;20018;-65
2023/05/10 00:22:42;;;;;;;5.32;2.50;;;;;;;;;;12988129;19;20010;-66
2023/05/10 00:27:00;;;;;;;5.20;2.53;;;;;;;;;;12989101;19;20011;-65
2023/05/10 00:31:18;;;;;;;4.70;2.70;;;;;;;;;;12987985;19;20520;-65
2023/05/10 00:35:37;;;;;;;4.57;2.75;;;;;;;;;;12988689;19;20014;-65
2023/05/10 00:39:56;;;;;;;4.75;2.45;;;;;;;;;;12989028;19;20014;-65
2023/05/10 00:44:14;;;;;;;6.60;2.80;;;;;;;;;;12987810;19;20375;-66
2023/05/10 00:48:31;;;;;;;4.18;2.30;;;;;;;;;;12988257;19;20354;-66
2023/05/10 00:52:50;;;;;;;3.63;2.25;;;;;;;;;;12987586;19;20351;-65
2023/05/10 00:57:08;;;;;;;6.22;3.08;;;;;;;;;;12986926;19;20019;-65
2023/05/10 01:01:26;;;;;;;4.88;2.88;;;;;;;;;;12987384;19;20025;-65
2023/05/10 01:05:44;;;;;;;2.97;2.13;;;;;;;;;;12984940;19;20015;-66
2023/05/10 01:10:01;;;;;;;5.82;2.95;;;;;;;;;;12986416;19;20003;-66
2023/05/10 01:14:20;;;;;;;4.13;2.28;;;;;;;;;;12986553;19;20014;-67
2023/05/10 01:18:41;;;;;;;6.10;3.10;;;;;;;;;;12985111;19;20019;-67
2023/05/10 01:23:27;;;;;;;4.05;2.35;;;;;;;;;;12987083;19;20006;-66
2023/05/10 01:28:38;;;;;;;4.53;2.42;;;;;;;;;;12986697;19;20022;-66
2023/05/10 01:33:17;;;;;;;6.10;2.47;;;;;;;;;;12986445;19;20484;-66
2023/05/10 01:37:56;;;;;;;4.80;2.65;;;;;;;;;;12984223;19;20011;-67
2023/05/10 01:42:21;;;;;;;8.75;2.65;;;;;;;;;;12983646;19;20021;-66
2023/05/10 01:46:40;;;;;;;5.70;2.67;;;;;;;;;;12985275;19;20311;-66
2023/05/10 01:50:58;;;;;;;5.25;2.53;;;;;;;;;;12984713;19;20391;-66
2023/05/10 01:55:20;;;;;;;5.25;2.42;;;;;;;;;;12984035;19;20033;-66
2023/05/10 01:59:40;;;;;;;5.25;2.78;;;;;;;;;;12984291;19;20014;-66
2023/05/10 02:03:59;;;;;;;4.18;2.67;;;;;;;;;;12983909;19;20018;-66
2023/05/10 02:08:18;;;;;;;4.70;2.60;;;;;;;;;;12983826;19;20010;-67
2023/05/10 02:12:41;;;;;;;4.10;2.47;;;;;;;;;;12984514;19;20026;-66
2023/05/10 02:17:01;;;;;;;2.85;2.17;;;;;;;;;;12982934;19;20457;-67
2023/05/10 02:21:21;;;;;;;4.95;2.30;;;;;;;;;;12981674;19;20014;-65
2023/05/10 02:25:42;;;;;;;6.93;2.58;;;;;;;;;;12981807;19;20009;-68
2023/05/10 02:30:01;;;;;;;4.35;2.30;;;;;;;;;;12981879;19;20298;-66
2023/05/10 02:34:21;;;;;;;4.45;2.70;;;;;;;;;;12982767;19;20018;-68
2023/05/10 02:38:40;;;;;;;6.00;1.88;;;;;;;;;;12981560;19;20021;-67
2023/05/10 02:43:01;;;;;;;8.02;2.75;;;;;;;;;;12980995;19;20375;-66
2023/05/10 02:47:19;;;;;;;3.88;2.30;;;;;;;;;;12981162;19;20021;-65
2023/05/10 02:51:43;;;;;;;5.13;2.80;;;;;;;;;;12981336;19;20477;-66
2023/05/10 02:56:06;;;;;;;3.70;2.22;;;;;;;;;;12980432;19;20025;-67
2023/05/10 03:00:25;;;;;;;5.32;2.40;;;;;;;;;;12979748;19;20378;-67
2023/05/10 03:04:43;;;;;;;3.92;2.33;;;;;;;;;;12980241;19;20030;-65
2023/05/10 03:09:02;;;;;;;4.78;2.70;;;;;;;;;;12980363;19;20015;-66
2023/05/10 03:13:36;;;;;;;4.07;2.40;;;;;;;;;;12980597;19;20014;-65
2023/05/10 03:18:38;;;;;;;11.73;5.00;;;;;;;;;;12980608;19;20021;-67
2023/05/10 03:23:26;;;;;;;44.88;21.70;;;;;;;;;;12977781;19;20492;-67
2023/05/10 03:27:45;;;;;;;;;;;;;;;;;;12979923;19;20406;-66
2023/05/10 03:32:03;;;;;;;7.55;3.13;;;;;;;;;;12978530;19;19922;-67
2023/05/10 03:36:20;;;;;;;7.72;3.17;;;;;;;;;;12976809;19;20022;-64
2023/05/10 03:40:39;;;;;;;8.10;3.45;;;;;;;;;;12979108;19;20021;-66
2023/05/10 03:44:56;;;;;;;11.32;3.72;;;;;;;;;;12975571;19;20018;-66
2023/05/10 03:49:14;;;;;;;;;;;;;;;;;;12977700;19;20011;-66
2023/05/10 03:53:32;;;;;;;6.33;2.43;;;;;;;;;;12978887;19;19919;-68
2023/05/10 03:57:50;;;;;;;4.88;3.10;;;;;;;;;;12981084;19;20220;-66
2023/05/10 04:02:07;;;;;;;4.80;2.50;;;;;;;;;;12990075;19;20007;-66
2023/05/10 04:06:25;;;;;;;3.35;2.50;;;;;;;;;;12990633;19;20010;-66
2023/05/10 04:10:43;;;;;;;4.25;2.10;;;;;;;;;;12989161;19;20006;-66
2023/05/10 04:15:01;;;;;;;3.33;1.90;;;;;;;;;;12990904;19;20022;-65
2023/05/10 04:19:19;;;;;;;4.90;2.33;;;;;;;;;;12990186;19;20018;-67
2023/05/10 04:23:38;;;;;;;4.47;2.20;;;;;;;;;;12989791;19;20481;-65
2023/05/10 04:27:55;;;;;;;5.47;2.05;;;;;;;;;;12989206;19;20010;-66
2023/05/10 04:32:13;;;;;;;4.03;2.40;;;;;;;;;;12987596;19;20010;-66
2023/05/10 04:36:32;;;;;;;5.40;2.50;;;;;;;;;;12988766;19;20010;-65
2023/05/10 04:40:50;;;;;;;4.63;2.20;;;;;;;;;;12988693;19;20013;-66
2023/05/10 04:45:09;;;;;;;2.63;2.00;;;;;;;;;;12987741;19;20501;-66
2023/05/10 04:49:27;;;;;;;5.32;2.40;;;;;;;;;;12986970;19;20017;-66
2023/05/10 04:53:45;;;;;;;3.00;1.90;;;;;;;;;;12988235;19;20461;-66
2023/05/10 04:58:21;;;;;;;2.40;1.67;;;;;;;;;;12988167;19;20022;-66
2023/05/10 05:02:47;;;;;;;4.20;2.00;;;;;;;;;;12987339;19;20018;-66
2023/05/10 05:07:05;;;;;;;5.43;1.95;;;;;;;;;;12986544;19;20014;-65
2023/05/10 05:11:23;;;;;;;4.70;1.98;;;;;;;;;;12986200;19;20029;-66
2023/05/10 05:15:41;;;;;;;3.78;2.00;;;;;;;;;;12986635;19;20038;-67
2023/05/10 05:19:59;;;;;;;4.00;1.95;;;;;;;;;;12986443;19;20018;-65
2023/05/10 05:24:16;;;;;;;3.78;1.98;;;;;;;;;;12986084;19;20030;-66
2023/05/10 05:28:37;;;;;;;3.75;1.83;;;;;;;;;;12986724;19;20021;-66
2023/05/10 05:32:54;;;;;;;4.18;1.98;;;;;;;;;;12986346;19;20022;-66
2023/05/10 05:37:17;;;;;;;6.55;2.22;;;;;;;;;;12984668;19;20010;-66
2023/05/10 05:41:35;;;;;;;3.47;2.13;;;;;;;;;;12985134;19;20031;-67
2023/05/10 05:45:53;;;;;;;3.70;2.22;;;;;;;;;;12984718;19;20543;-66
2023/05/10 05:50:11;;;;;;;5.80;1.98;;;;;;;;;;12983666;19;20015;-66
2023/05/10 05:54:30;;;;;;;6.05;1.85;;;;;;;;;;12985125;19;20519;-66
2023/05/10 05:58:49;;;;;;;3.42;1.73;;;;;;;;;;12984836;19;20471;-67
2023/05/10 06:03:07;;;;;;;2.38;1.38;;;;;;;;;;12983644;19;20385;-67
2023/05/10 06:07:25;;;;;;;4.25;1.45;;;;;;;;;;12984209;19;20019;-67
2023/05/10 06:11:43;;;;;;;2.25;1.50;;;;;;;;;;12983781;19;20423;-69
2023/05/10 06:16:02;;;;;;;4.38;1.55;;;;;;;;;;12984332;19;20623;-67
2023/05/10 06:20:20;;;;;;;2.75;1.90;;;;;;;;;;12981572;19;20010;-67
2023/05/10 06:24:37;;;;;;;9.18;1.67;;;;;;;;;;12983443;19;20038;-67
2023/05/10 06:28:55;;;;;;;3.47;1.80;;;;;;;;;;12983136;19;20022;-67
2023/05/10 06:33:15;;;;;;;2.58;1.55;;;;;;;;;;12982147;19;20021;-68
2023/05/10 06:37:34;;;;;;;3.17;1.48;;;;;;;;;;12982457;19;20015;-67
2023/05/10 06:41:52;;;;;;;5.95;1.55;;;;;;;;;;12981268;19;20014;-67
2023/05/10 06:46:10;;;;;;;2.85;1.70;;;;;;;;;;12981162;19;20608;-68
2023/05/10 06:50:27;;;;;;;3.67;1.80;;;;;;;;;;12977954;19;20078;-67
2023/05/10 06:54:44;;;;;;;2.97;1.70;;;;;;;;;;12981449;19;20002;-67
2023/05/10 06:59:02;;;;;;;3.95;1.70;;;;;;;;;;12979711;19;20019;-68
2023/05/10 07:03:20;;;;;;;4.85;1.38;;;;;;;;;;12980745;19;20594;-67
2023/05/10 07:07:38;;;;;;;3.45;1.75;;;;;;;;;;12980816;19;20019;-68
2023/05/10 07:11:57;;;;;;;1.75;1.25;;;;;;;;;;12980499;19;20405;-67
2023/05/10 07:16:15;;;;;;;1.63;1.23;;;;;;;;;;12980119;19;20019;-68
2023/05/10 07:20:33;;;;;;;4.13;1.80;;;;;;;;;;12980827;19;20006;-68
2023/05/10 07:24:51;;;;;;;5.22;1.63;;;;;;;;;;12979980;19;20350;-68
2023/05/10 07:29:09;;;;;;;1.77;1.08;;;;;;;;;;12978797;19;20018;-68
2023/05/10 07:33:27;;;;;;;1.85;1.38;;;;;;;;;;12987706;19;20002;-67
2023/05/10 07:37:45;;;;;;;2.53;1.52;;;;;;;;;;12991643;19;20018;-69
2023/05/10 07:42:03;;;;;;;2.25;1.48;;;;;;;;;;12989908;19;20015;-67
2023/05/10 07:46:20;;;;;;;2.88;1.48;;;;;;;;;;12991661;19;20002;-67
2023/05/10 07:50:38;;;;;;;1.45;1.10;;;;;;;;;;12990724;19;20535;-68
2023/05/10 07:54:56;;;;;;;5.85;1.30;;;;;;;;;;12991625;19;20445;-68
2023/05/10 07:59:16;;;;;;;4.03;1.50;;;;;;;;;;12990562;19;20358;-68
2023/05/10 08:03:34;;;;;;;1.77;0.82;;;;;;;;;;12990910;19;20018;-67
2023/05/10 08:07:52;;;;;;;4.07;1.45;;;;;;;;;;12991167;19;20010;-65
2023/05/10 08:12:10;;;;;;;1.88;1.00;;;;;;;;;;12990856;19;20344;-64
2023/05/10 08:16:28;;;;;;;1.85;1.15;;;;;;;;;;12990595;19;20014;-64
2023/05/10 08:20:46;;;;;;;0.77;0.68;;;;;;;;;;12989950;19;20010;-64
2023/05/10 08:25:05;;;;;;;2.97;1.60;;;;;;;;;;12988581;19;20017;-65
2023/05/10 08:29:22;;;;;;;2.03;1.38;;;;;;;;;;12989815;19;20018;-64
2023/05/10 08:33:42;;;;;;;4.68;1.67;;;;;;;;;;12986741;19;20026;-65
2023/05/10 08:38:02;;;;;;;3.33;1.20;;;;;;;;;;12988008;19;20012;-66
2023/05/10 08:42:24;;;;;;;1.08;0.60;;;;;;;;;;12987360;19;20015;-65
2023/05/10 08:46:46;;;;;;;2.45;1.10;;;;;;;;;;12985537;19;20007;-65
2023/05/10 08:51:04;;;;;;;3.28;0.98;;;;;;;;;;12984848;19;20022;-64
2023/05/10 08:55:23;;;;;;;2.50;1.33;;;;;;;;;;12986687;19;20034;-65
2023/05/10 08:59:41;;;;;;;1.25;0.77;;;;;;;;;;12988557;19;20026;-64
2023/05/10 09:03:59;;;;;;;2.40;1.20;;;;;;;;;;12986229;19;20043;-65
2023/05/10 09:08:17;;;;;;;1.50;1.10;;;;;;;;;;12987296;19;20465;-65
2023/05/10 09:12:35;;;;;;;1.48;1.25;;;;;;;;;;12985372;19;20014;-65
2023/05/10 09:16:55;;;;;;;1.70;0.95;;;;;;;;;;12986109;19;20006;-64
2023/05/10 09:21:13;;;;;;;1.42;1.00;;;;;;;;;;12984250;19;20014;-65
2023/05/10 09:25:33;;;;;;;4.47;1.25;;;;;;;;;;12985811;19;20042;-64
2023/05/10 09:29:54;;;;;;;1.13;1.02;;;;;;;;;;12985891;19;20014;-64
2023/05/10 09:34:19;;;;;;;1.45;1.08;;;;;;;;;;12985482;19;20006;-64
2023/05/10 09:38:52;;;;;;;4.65;1.17;;;;;;;;;;12986220;19;20013;-65
2023/05/10 09:43:10;;;;;;;1.25;1.00;;;;;;;;;;12983431;19;20056;-64
2023/05/10 09:47:28;;;;;;;;;;;;;;;;;;12985192;19;20027;-65
2023/05/10 09:51:46;;;;;;;1.67;1.35;;;;;;;;;;12984770;19;19914;-64
2023/05/10 09:56:04;;;;;;;1.52;0.77;;;;;;;;;;12981804;19;20010;-65
2023/05/10 10:00:21;;;;;;;1.52;0.90;;;;;;;;;;12983795;19;20396;-64
2023/05/10 10:04:40;;;;;;;0.65;0.63;;;;;;;;;;12984365;19;20355;-64
2023/05/10 10:08:58;;;;;;;1.52;1.23;;;;;;;;;;12983335;19;20470;-65
2023/05/10 10:13:17;;;;;;;1.92;1.30;;;;;;;;;;12982561;19;20055;-65
2023/05/10 10:17:38;;;;;;;1.98;1.45;;;;;;;;;;12984582;19;20495;-65
2023/05/10 10:21:56;;;;;;;2.63;1.25;;;;;;;;;;12983304;19;20016;-64
2023/05/10 10:26:15;;;;;;;1.77;1.05;;;;;;;;;;12982434;19;20014;-65
2023/05/10 10:30:37;;;;;;;3.83;1.60;;;;;;;;;;12980795;19;20025;-65
2023/05/10 10:34:56;;;;;;;3.50;0.93;;;;;;;;;;12982802;19;20018;-64
2023/05/10 10:39:14;;;;;;;2.20;1.15;;;;;;;;;;12980695;19;20508;-64
2023/05/10 10:43:32;;;;;;;4.72;2.45;;;;;;;;;;12980568;19;20013;-64
2023/05/10 10:48:22;;;;;;;2.60;1.33;;;;;;;;;;12982928;19;20011;-65
2023/05/10 10:52:42;;;;;;;1.20;0.80;;;;;;;;;;12981854;19;20331;-64
2023/05/10 10:57:13;;;;;;;7.05;3.15;;;;;;;;;;12982246;19;20023;-64
2023/05/10 11:01:35;;;;;;;2.38;1.20;;;;;;;;;;12981934;19;20014;-64
2023/05/10 11:05:58;;;;;;;5.05;2.83;;;;;;;;;;12981320;19;20511;-63
2023/05/10 11:10:20;;;;;;;1.58;0.90;;;;;;;;;;12992446;19;20034;-63
2023/05/10 11:14:40;;;;;;;3.72;1.00;;;;;;;;;;12993760;19;20018;-63
2023/05/10 11:19:07;;;;;;;4.35;1.48;;;;;;;;;;12993210;19;20010;-64
2023/05/10 11:23:31;;;;;;;3.47;1.40;;;;;;;;;;12993117;19;20557;-63
2023/05/10 11:27:50;;;;;;;1.92;1.20;;;;;;;;;;12992819;19;20019;-63
2023/05/10 11:32:08;;;;;;;2.30;1.27;;;;;;;;;;12990643;19;20034;-63
2023/05/10 11:36:36;;;;;;;2.50;1.23;;;;;;;;;;12991052;19;20021;-63
2023/05/10 11:40:53;;;;;;;2.80;1.10;;;;;;;;;;12992594;19;20025;-63
2023/05/10 11:45:11;;;;;;;1.05;0.73;;;;;;;;;;12990810;19;20015;-63
2023/05/10 11:49:29;;;;;;;6.28;1.00;;;;;;;;;;12990312;19;20002;-63
2023/05/10 11:53:47;;;;;;;1.77;1.25;;;;;;;;;;12990927;19;20400;-63
2023/05/10 11:58:05;;;;;;;1.60;1.10;;;;;;;;;;12990303;19;20018;-63
2023/05/10 12:02:24;;;;;;;2.88;1.02;;;;;;;;;;12991036;19;20014;-62
2023/05/10 12:06:42;;;;;;;1.42;0.88;;;;;;;;;;12990867;19;20011;-63
2023/05/10 12:11:10;;;;;;;1.83;1.25;;;;;;;;;;12990595;19;20027;-62
2023/05/10 12:15:28;;;;;;;4.13;1.00;;;;;;;;;;12991726;19;20018;-62
2023/05/10 12:19:46;;;;;;;1.65;1.17;;;;;;;;;;13006918;19;20022;-63
2023/05/10 12:24:04;;;;;;;5.03;1.35;;;;;;;;;;13009536;19;20507;-63
2023/05/10 12:28:22;;;;;;;6.75;1.42;;;;;;;;;;13009885;19;20062;-64
2023/05/10 12:32:44;;;;;;;2.10;1.10;;;;;;;;;;13009324;19;20340;-63
2023/05/10 12:37:03;;;;;;;1.27;0.95;;;;;;;;;;13008878;19;20009;-65
2023/05/10 12:41:21;;;;;;;1.67;1.27;;;;;;;;;;13008814;19;20038;-63
2023/05/10 12:45:39;;;;;;;3.47;1.55;;;;;;;;;;13009639;19;20010;-63
2023/05/10 12:49:57;;;;;;;1.10;1.00;;;;;;;;;;13008892;19;20342;-63
2023/05/10 12:54:14;;;;;;;1.42;0.73;;;;;;;;;;13008155;19;20006;-63
2023/05/10 12:58:32;;;;;;;1.55;0.68;;;;;;;;;;13008686;19;20322;-63
2023/05/10 13:02:53;;;;;;;2.08;1.08;;;;;;;;;;13008388;19;20002;-63
2023/05/10 13:07:11;;;;;;;0.80;0.70;;;;;;;;;;13007641;19;20034;-64
2023/05/10 13:11:28;;;;;;;2.10;1.25;;;;;;;;;;13008105;19;20011;-63
2023/05/10 13:15:46;;;;;;;1.15;0.85;;;;;;;;;;13007546;19;20025;-63
2023/05/10 13:20:04;;;;;;;1.13;0.75;;;;;;;;;;13006183;19;20018;-63
2023/05/10 13:24:22;;;;;;;1.10;0.85;;;;;;;;;;13007611;19;20018;-64
2023/05/10 13:28:40;;;;;;;2.20;0.93;;;;;;;;;;13006885;19;20002;-63
2023/05/10 13:32:58;;;;;;;1.48;1.05;;;;;;;;;;13005159;19;20013;-61
2023/05/10 13:37:15;;;;;;;1.80;1.00;;;;;;;;;;13005935;19;20021;-61
2023/05/10 13:41:33;;;;;;;2.08;0.90;;;;;;;;;;13005597;19;20335;-62
2023/05/10 13:45:52;;;;;;;1.13;0.90;;;;;;;;;;13006270;19;20010;-62
2023/05/10 13:50:10;;;;;;;0.70;0.55;;;;;;;;;;13005106;19;20011;-63
2023/05/10 13:54:30;;;;;;;1.48;1.00;;;;;;;;;;13005775;19;20008;-62
2023/05/10 13:58:47;;;;;;;3.10;1.15;;;;;;;;;;13005851;19;20130;-62
2023/05/10 14:03:06;;;;;;;1.35;1.13;;;;;;;;;;13004759;19;20110;-62
2023/05/10 14:07:24;;;;;;;2.65;1.13;;;;;;;;;;13004943;19;20018;-62
2023/05/10 14:11:43;;;;;;;1.08;0.68;;;;;;;;;;13003952;19;20366;-62
2023/05/10 14:16:00;;;;;;;3.75;1.00;;;;;;;;;;13004676;19;20014;-62
2023/05/10 14:20:18;;;;;;;1.83;0.82;;;;;;;;;;13003739;19;20017;-62
2023/05/10 14:24:38;;;;;;;1.27;0.75;;;;;;;;;;13001760;19;20002;-62
2023/05/10 14:28:55;;;;;;;1.50;0.77;;;;;;;;;;13003635;19;20006;-62
2023/05/10 14:33:14;;;;;;;1.42;0.80;;;;;;;;;;13002473;19;20010;-62
2023/05/10 14:37:32;;;;;;;1.88;0.90;;;;;;;;;;13003580;19;20011;-62
2023/05/10 14:41:51;;;;;;;2.22;1.13;;;;;;;;;;13000899;19;20014;-62
2023/05/10 14:46:09;;;;;;;1.35;0.82;;;;;;;;;;13002291;19;20505;-62
2023/05/10 14:50:27;;;;;;;1.15;0.60;;;;;;;;;;13002302;19;20038;-62
2023/05/10 14:54:53;;;;;;;1.00;0.83;;;;;;;;;;13002236;19;20315;-62
2023/05/10 14:59:11;;;;;;;2.53;1.00;;;;;;;;;;13001892;19;20010;-62
2023/05/10 15:03:29;;;;;;;2.40;1.20;;;;;;;;;;13002136;19;20030;-62
2023/05/10 15:07:48;;;;;;;1.40;1.00;;;;;;;;;;13001712;19;20019;-62
2023/05/10 15:12:06;;;;;;;1.30;0.82;;;;;;;;;;13000515;19;20002;-62
2023/05/10 15:16:24;;;;;;;0.73;0.70;;;;;;;;;;13001398;19;20018;-62
2023/05/10 15:20:41;;;;;;;;;;;;;;;;;;13001739;19;20481;-62
2023/05/10 15:24:59;;;;;;;1.63;1.08;;;;;;;;;;13000949;19;19918;-62
2023/05/10 15:29:19;;;;;;;4.68;1.08;;;;;;;;;;13000241;19;20014;-62
2023/05/10 15:33:38;;;;;;;1.80;0.98;;;;;;;;;;12999942;19;20006;-62
2023/05/10 15:37:56;;;;;;;0.60;0.60;;;;;;;;;;13000136;19;20017;-63
2023/05/10 15:42:13;;;;;;;1.35;1.10;;;;;;;;;;12998300;19;20014;-63
2023/05/10 15:46:31;;;;;;;1.70;0.95;;;;;;;;;;12998209;19;20026;-63
2023/05/10 15:50:49;;;;;;;1.42;0.60;;;;;;;;;;12999781;19;20010;-63
2023/05/10 15:55:11;;;;;;;1.55;1.00;;;;;;;;;;13005593;19;20335;-62
2023/05/10 15:59:29;;;;;;;1.10;0.70;;;;;;;;;;13012016;19;20350;-63
2023/05/10 16:03:47;;;;;;;3.08;1.08;;;;;;;;;;13011190;19;20007;-63
2023/05/10 16:08:05;;;;;;;1.65;1.00;;;;;;;;;;13010531;19;20018;-63
2023/05/10 16:12:22;;;;;;;2.03;1.37;;;;;;;;;;13008142;19;20015;-63
2023/05/10 16:16:40;;;;;;;2.60;1.27;;;;;;;;;;13011021;19;20454;-63
2023/05/10 16:20:58;;;;;;;0.90;0.75;;;;;;;;;;13010916;19;20009;-63
2023/05/10 16:25:15;;;;;;;;;;;;;;;;;;13008271;19;20002;-63
2023/05/10 16:29:33;;;;;;;2.05;1.13;;;;;;;;;;13010185;19;19946;-63
2023/05/10 16:33:51;;;;;;;;;;;;;;;;;;13010946;19;20018;-62
2023/05/10 16:38:10;;;;;;;4.18;0.88;;;;;;;;;;13009294;19;19911;-63
2023/05/10 16:42:27;;;;;;;2.75;1.27;;;;;;;;;;13008613;19;20457;-63
2023/05/10 16:46:45;;;;;;;1.65;1.20;;;;;;;;;;13009349;19;20014;-63
2023/05/10 16:51:03;;;;;;;9.02;1.13;;;;;;;;;;13007502;19;20567;-63
2023/05/10 16:55:21;;;;;;;1.17;0.88;;;;;;;;;;13008742;19;20537;-63
2023/05/10 16:59:42;;;;;;;1.40;0.77;;;;;;;;;;13008713;19;20011;-62
2023/05/10 17:04:00;;;;;;;2.10;1.27;;;;;;;;;;13007524;19;20110;-62
2023/05/10 17:08:20;;;;;;;1.48;1.00;;;;;;;;;;13008232;19;20009;-62
2023/05/10 17:12:38;;;;;;;0.73;0.60;;;;;;;;;;13007828;19;20002;-62
2023/05/10 17:16:55;;;;;;;0.98;0.82;;;;;;;;;;13008111;19;20010;-63
2023/05/10 17:21:13;;;;;;;3.80;1.10;;;;;;;;;;13007395;19;20218;-62
2023/05/10 17:25:31;;;;;;;2.80;1.40;;;;;;;;;;13007124;19;20465;-63
2023/05/10 17:29:48;;;;;;;2.33;1.20;;;;;;;;;;13007189;19;20021;-63
2023/05/10 17:34:06;;;;;;;5.35;1.08;;;;;;;;;;13005978;19;19999;-63
2023/05/10 17:38:24;;;;;;;2.58;1.38;;;;;;;;;;13006965;19;20029;-63
2023/05/10 17:42:42;;;;;;;2.33;0.88;;;;;;;;;;13005470;19;20375;-63
2023/05/10 17:47:00;;;;;;;2.58;1.20;;;;;;;;;;13005495;19;20021;-63
2023/05/10 17:51:19;;;;;;;2.33;1.33;;;;;;;;;;13005765;19;20021;-63
2023/05/10 17:55:40;;;;;;;1.98;1.38;;;;;;;;;;13005000;19;20018;-63
2023/05/10 17:59:58;;;;;;;5.88;1.52;;;;;;;;;;13005528;19;20019;-63
2023/05/10 18:04:16;;;;;;;5.32;2.28;;;;;;;;;;13003631;19;20500;-62
2023/05/10 18:08:37;;;;;;;4.28;1.55;;;;;;;;;;13004741;19;20006;-62
2023/05/10 18:12:57;;;;;;;3.60;1.80;;;;;;;;;;13002263;19;20010;-62
2023/05/10 18:17:15;;;;;;;3.08;1.52;;;;;;;;;;13001293;19;20007;-63
2023/05/10 18:21:33;;;;;;;4.10;1.90;;;;;;;;;;13003860;19;20006;-63
2023/05/10 18:25:51;;;;;;;4.50;1.70;;;;;;;;;;13003732;19;20014;-63
2023/05/10 18:30:11;;;;;;;;;;;;;;;;;;13001941;19;20006;-62
2023/05/10 18:34:28;;;;;;;2.45;1.75;;;;;;;;;;13002658;19;20314;-62
2023/05/10 18:38:46;;;;;;;2.45;1.33;;;;;;;;;;13003139;19;20026;-62
2023/05/10 18:43:22;;;;;;;2.38;1.45;;;;;;;;;;13001111;19;20006;-62
2023/05/10 18:47:40;;;;;;;2.35;1.50;;;;;;;;;;13001940;19;20438;-62
2023/05/10 18:51:57;;;;;;;3.00;1.50;;;;;;;;;;13001152;19;20014;-62
2023/05/10 18:56:15;;;;;;;3.28;1.50;;;;;;;;;;13001557;19;20470;-62
2023/05/10 19:00:33;;;;;;;1.85;1.13;;;;;;;;;;13001998;19;20007;-62
2023/05/10 19:04:51;;;;;;;2.63;1.35;;;;;;;;;;13001301;19;20007;-63
2023/05/10 19:09:08;;;;;;;3.97;1.80;;;;;;;;;;13000923;19;20340;-62
2023/05/10 19:13:27;;;;;;;4.43;1.63;;;;;;;;;;13000937;19;20011;-62
2023/05/10 19:17:45;;;;;;;3.58;1.80;;;;;;;;;;13000576;19;20023;-63
2023/05/10 19:22:03;;;;;;;4.30;1.77;;;;;;;;;;13000371;19;20346;-63
2023/05/10 19:26:21;;;;;;;2.25;1.48;;;;;;;;;;13000389;19;20023;-63
2023/05/10 19:30:38;;;;;;;5.03;1.85;;;;;;;;;;13011499;19;20011;-64
2023/05/10 19:34:56;;;;;;;8.95;2.03;;;;;;;;;;13011963;19;20038;-62
2023/05/10 19:39:14;;;;;;;4.35;2.28;;;;;;;;;;13011257;19;20007;-63
2023/05/10 19:43:35;;;;;;;2.53;1.70;;;;;;;;;;12988750;19;20007;-63
2023/05/10 19:47:53;;;;;;;4.70;1.77;;;;;;;;;;13011027;19;20006;-62
2023/05/10 19:52:11;;;;;;;2.50;1.63;;;;;;;;;;13011643;19;20018;-63
2023/05/10 19:56:32;;;;;;;4.20;1.83;;;;;;;;;;13012278;19;20036;-63
2023/05/10 20:00:49;;;;;;;4.03;1.75;;;;;;;;;;13011383;19;20011;-62
2023/05/10 20:05:08;;;;;;;5.57;2.30;;;;;;;;;;13010673;19;20018;-63
2023/05/10 20:09:25;;;;;;;;;;;;;;;;;;13011614;19;20011;-62
2023/05/10 20:13:43;;;;;;;5.38;2.30;;;;;;;;;;13008726;19;20330;-63
2023/05/10 20:18:02;;;;;;;8.75;2.42;;;;;;;;;;13011051;19;20014;-63
2023/05/10 20:22:20;;;;;;;6.18;2.50;;;;;;;;;;13009089;19;20458;-63
2023/05/10 20:26:37;;;;;;;5.28;1.77;;;;;;;;;;13010056;19;20014;-62
2023/05/10 20:30:55;;;;;;;7.00;2.55;;;;;;;;;;13009482;19;20022;-62
2023/05/10 20:35:13;;;;;;;7.88;2.25;;;;;;;;;;13009027;19;20014;-62
2023/05/10 20:39:30;;;;;;;10.05;2.47;;;;;;;;;;13007561;19;20007;-62
2023/05/10 20:43:48;;;;;;;7.70;2.75;;;;;;;;;;13008015;19;20007;-62
2023/05/10 20:48:06;;;;;;;;;;;;;;;;;;13008476;19;20017;-63
2023/05/10 20:52:24;;;;;;;7.68;2.78;;;;;;;;;;13008357;19;19942;-62
2023/05/10 20:56:41;;;;;;;13.80;2.17;;;;;;;;;;13008444;19;20009;-62
2023/05/10 21:01:01;;;;;;;9.07;2.10;;;;;;;;;;13007917;19;20461;-63
2023/05/10 21:05:18;;;;;;;3.85;2.28;;;;;;;;;;13007571;19;20015;-62
2023/05/10 21:09:36;;;;;;;4.20;1.60;;;;;;;;;;13007729;19;20021;-63
2023/05/10 21:13:54;;;;;;;6.03;2.25;;;;;;;;;;13007094;19;20390;-62
2023/05/10 21:18:11;;;;;;;3.55;1.77;;;;;;;;;;13006506;19;20017;-62
2023/05/10 21:22:29;;;;;;;;;;;;;;;;;;13007670;19;20003;-62
2023/05/10 21:26:47;;;;;;;7.57;2.30;;;;;;;;;;13006747;19;19907;-62
2023/05/10 21:31:05;;;;;;;6.63;2.33;;;;;;;;;;13005745;19;20011;-62
2023/05/10 21:35:22;;;;;;;4.68;2.03;;;;;;;;;;13006106;19;20385;-63
2023/05/10 21:39:40;;;;;;;4.15;1.83;;;;;;;;;;13006397;19;20466;-62
2023/05/10 21:43:58;;;;;;;3.95;1.60;;;;;;;;;;13004953;19;19999;-63
2023/05/10 21:48:16;;;;;;;4.57;1.75;;;;;;;;;;13003908;19;20022;-62
2023/05/10 21:52:33;;;;;;;4.13;1.88;;;;;;;;;;13004993;19;20021;-63
2023/05/10 21:56:51;;;;;;;1.85;1.40;;;;;;;;;;13005148;19;20018;-63
2023/05/10 22:01:09;;;;;;;3.38;1.95;;;;;;;;;;13004167;19;20006;-62
2023/05/10 22:05:27;;;;;;;6.20;1.70;;;;;;;;;;13004564;19;20350;-63
2023/05/10 22:09:44;;;;;;;3.13;2.10;;;;;;;;;;13004491;19;20014;-62
2023/05/10 22:14:02;;;;;;;6.70;1.85;;;;;;;;;;13003041;19;20006;-62
2023/05/10 22:18:20;;;;;;;3.42;1.77;;;;;;;;;;13003894;19;20011;-62
2023/05/10 22:22:37;;;;;;;2.70;1.55;;;;;;;;;;13004592;19;20026;-62
2023/05/10 22:26:55;;;;;;;11.75;1.80;;;;;;;;;;13004504;19;20059;-63
2023/05/10 22:31:13;;;;;;;4.13;2.03;;;;;;;;;;13003035;19;20474;-62
2023/05/10 22:35:30;;;;;;;4.47;1.77;;;;;;;;;;13001288;19;20017;-62
2023/05/10 22:39:48;;;;;;;5.07;2.10;;;;;;;;;;13002687;19;20469;-62
2023/05/10 22:44:07;;;;;;;6.95;2.35;;;;;;;;;;13000693;19;20014;-64
2023/05/10 22:48:24;;;;;;;11.90;2.75;;;;;;;;;;13002106;19;20363;-62
2023/05/10 22:52:42;;;;;;;8.52;2.50;;;;;;;;;;13001266;19;20010;-62
2023/05/10 22:57:00;;;;;;;6.22;1.85;;;;;;;;;;13002098;19;20018;-61
2023/05/10 23:01:17;;;;;;;4.22;2.30;;;;;;;;;;13001680;19;20010;-62
2023/05/10 23:05:35;;;;;;;6.60;2.10;;;;;;;;;;13025182;19;20007;-62
2023/05/10 23:09:53;;;;;;;4.68;2.00;;;;;;;;;;13027061;19;20310;-62
2023/05/10 23:14:10;;;;;;;3.20;2.03;;;;;;;;;;13024436;19;20477;-62
2023/05/10 23:18:28;;;;;;;5.05;2.70;;;;;;;;;;13025935;19;20018;-63
2023/05/10 23:22:48;;;;;;;4.05;2.45;;;;;;;;;;13026016;19;20007;-63
2023/05/10 23:27:06;;;;;;;3.75;1.67;;;;;;;;;;13024644;19;20011;-63
2023/05/10 23:31:23;;;;;;;3.90;2.20;;;;;;;;;;13025224;19;20002;-63
2023/05/10 23:35:41;;;;;;;3.70;2.13;;;;;;;;;;13024569;19;20337;-63
2023/05/10 23:39:59;;;;;;;5.15;2.20;;;;;;;;;;13025010;19;20018;-63
2023/05/10 23:44:16;;;;;;;3.30;1.92;;;;;;;;;;13022978;19;20006;-64
2023/05/10 23:48:35;;;;;;;5.78;2.55;;;;;;;;;;13022432;19;20334;-62
2023/05/10 23:52:53;;;;;;;7.38;2.13;;;;;;;;;;13023399;19;20011;-62
2023/05/10 23:57:13;;;;;;;3.65;2.13;;;;;;;;;;13023653;19;20330;-63
